createdAt,value
2019-05-06T00:02:04.427Z,100576.30
2019-05-06T00:05:08.346Z,100569.75
2019-05-06T00:08:14.344Z,100573.07
2019-05-06T00:11:18.435Z,100576.78
2019-05-06T00:14:23.526Z,100575.94
2019-05-06T00:17:27.784Z,100573.35
2019-05-06T00:20:31.784Z,100572.13
2019-05-06T00:23:40.561Z,100574.56
2019-05-06T00:26:57.621Z,100578.38
2019-05-06T00:30:04.479Z,100575.58
2019-05-06T00:33:08.564Z,100576.58
2019-05-06T00:36:14.180Z,100578.50
2019-05-06T00:39:33.976Z,100577.34
2019-05-06T00:42:41.987Z,100577.69
2019-05-06T00:45:45.836Z,100579.61
2019-05-06T00:48:50.070Z,100578.02
2019-05-06T00:51:55.026Z,100584.52
2019-05-06T00:54:59.061Z,100580.97
2019-05-06T00:58:04.103Z,100585.90
2019-05-06T01:01:08.698Z,100580.89
2019-05-06T01:04:13.920Z,100579.52
2019-05-06T01:07:18.062Z,100583.48
2019-05-06T01:10:23.825Z,100584.91
2019-05-06T01:13:49.917Z,100582.14
2019-05-06T01:16:54.737Z,100592.92
2019-05-06T01:19:59.171Z,100593.52
2019-05-06T01:23:03.838Z,100598.06
2019-05-06T01:26:07.922Z,100595.83
2019-05-06T01:29:14.562Z,100599.84
2019-05-06T01:32:19.215Z,100594.87
2019-05-06T01:35:24.506Z,100591.75
2019-05-06T01:38:34.063Z,100593.88
2019-05-06T01:42:04.455Z,100595.61
2019-05-06T01:45:09.563Z,100595.61
2019-05-06T01:48:14.351Z,100607.35
2019-05-06T01:51:24.178Z,100607.84
2019-05-06T01:54:27.771Z,100606.57
2019-05-06T01:57:33.694Z,100609.69
2019-05-06T02:00:39.521Z,100610.55
2019-05-06T02:03:44.246Z,100610.08
2019-05-06T02:06:48.461Z,100608.70
2019-05-06T02:09:54.194Z,100611.47
2019-05-06T02:12:58.344Z,100613.41
2019-05-06T02:16:03.973Z,100612.59
2019-05-06T02:19:08.157Z,100607.25
2019-05-06T02:22:23.585Z,100610.97
2019-05-06T02:25:34.240Z,100612.84
2019-05-06T02:28:40.049Z,100607.06
2019-05-06T02:32:16.171Z,100607.52
2019-05-06T02:35:14.883Z,100614.66
2019-05-06T02:38:39.140Z,100610.19
2019-05-06T02:41:37.209Z,100619.09
2019-05-06T02:44:44.245Z,100611.53
2019-05-06T02:48:05.559Z,100613.91
2019-05-06T02:51:13.370Z,100609.93
2019-05-06T02:54:17.880Z,100604.64
2019-05-06T02:57:23.857Z,100606.38
2019-05-06T03:00:27.771Z,100606.38
2019-05-06T03:03:33.787Z,100610.95
2019-05-06T03:06:38.449Z,100609.18
2019-05-06T03:09:44.544Z,100618.50
2019-05-06T03:12:48.229Z,100612.55
2019-05-06T03:15:54.123Z,100615.67
2019-05-06T03:18:58.710Z,100622.66
2019-05-06T03:22:24.059Z,100623.55
2019-05-06T03:25:29.557Z,100624.97
2019-05-06T03:28:34.569Z,100620.96
2019-05-06T03:31:38.954Z,100622.05
2019-05-06T03:35:01.224Z,100623.21
2019-05-06T03:37:49.531Z,100622.85
2019-05-06T03:40:54.160Z,100629.22
2019-05-06T03:43:58.887Z,100622.23
2019-05-06T03:47:34.964Z,100624.27
2019-05-06T03:50:38.965Z,100629.34
2019-05-06T03:53:44.251Z,100624.48
2019-05-06T03:56:50.273Z,100629.14
2019-05-06T03:59:55.435Z,100640.09
2019-05-06T04:03:02.882Z,100640.25
2019-05-06T04:06:05.787Z,100638.53
2019-05-06T04:09:13.004Z,100645.17
2019-05-06T04:12:16.993Z,100651.87
2019-05-06T04:15:22.970Z,100652.23
2019-05-06T04:18:29.385Z,100656.19
2019-05-06T04:21:44.514Z,100660.55
2019-05-06T04:24:59.077Z,100661.35
2019-05-06T04:28:12.915Z,100655.91
2019-05-06T04:31:17.247Z,100649.59
2019-05-06T04:34:23.386Z,100662.97
2019-05-06T04:37:27.850Z,100661.01
2019-05-06T04:40:33.119Z,100663.17
2019-05-06T04:43:37.704Z,100668.83
2019-05-06T04:46:44.363Z,100673.14
2019-05-06T04:49:48.054Z,100677.37
2019-05-06T04:53:04.837Z,100674.87
2019-05-06T04:56:08.494Z,100676.12
2019-05-06T04:59:13.982Z,100678.16
2019-05-06T05:02:18.947Z,100680.58
2019-05-06T05:05:23.209Z,100683.81
2019-05-06T05:08:39.235Z,100688.71
2019-05-06T05:11:56.528Z,100690.09
2019-05-06T05:15:19.789Z,100691.95
2019-05-06T05:18:32.013Z,100697.13
2019-05-06T05:21:36.771Z,100699.60
2019-05-06T05:24:42.542Z,100703.57
2019-05-06T05:27:46.915Z,100709.09
2019-05-06T05:30:52.224Z,100714.02
2019-05-06T05:33:57.482Z,100717.25
2019-05-06T05:37:03.066Z,100721.45
2019-05-06T05:40:07.359Z,100724.59
2019-05-06T05:43:39.415Z,100725.78
2019-05-06T05:46:43.873Z,100726.62
2019-05-06T05:50:08.244Z,100725.95
2019-05-06T05:53:12.532Z,100728.42
2019-05-06T05:56:16.516Z,100727.95
2019-05-06T05:59:23.244Z,100724.69
2019-05-06T06:02:26.989Z,100721.13
2019-05-06T06:05:32.997Z,100719.95
2019-05-06T06:08:37.397Z,100725.55
2019-05-06T06:11:48.424Z,100727.99
2019-05-06T06:15:14.263Z,100723.94
2019-05-06T06:18:27.944Z,100723.43
2019-05-06T06:21:48.203Z,100727.20
2019-05-06T06:24:52.629Z,100726.31
2019-05-06T06:27:57.475Z,100733.88
2019-05-06T06:31:17.517Z,100734.86
2019-05-06T06:34:27.313Z,100734.20
2019-05-06T06:38:02.877Z,100738.14
2019-05-06T06:41:06.879Z,100725.46
2019-05-06T06:44:14.538Z,100720.62
2019-05-06T06:47:18.927Z,100716.36
2019-05-06T06:50:24.023Z,100709.69
2019-05-06T06:53:28.428Z,100702.93
2019-05-06T06:57:03.215Z,100697.11
2019-05-06T07:00:06.145Z,100694.48
2019-05-06T07:03:12.966Z,100692.62
2019-05-06T07:06:27.514Z,100694.14
2019-05-06T07:09:32.341Z,100687.95
2019-05-06T07:12:36.885Z,100685.70
2019-05-06T07:15:42.661Z,100692.70
2019-05-06T07:18:46.636Z,100692.94
2019-05-06T07:21:56.177Z,100687.89
2019-05-06T07:25:03.562Z,100689.42
2019-05-06T07:28:06.174Z,100693.95
2019-05-06T07:31:20.701Z,100692.34
2019-05-06T07:34:15.831Z,100690.57
2019-05-06T07:37:21.959Z,100686.01
2019-05-06T07:40:25.952Z,100681.67
2019-05-06T07:43:46.907Z,100680.08
2019-05-06T07:46:57.392Z,100684.45
2019-05-06T07:50:02.568Z,100682.91
2019-05-06T07:53:06.950Z,100686.88
2019-05-06T07:56:12.648Z,100687.11
2019-05-06T07:59:16.959Z,100689.80
2019-05-06T08:02:22.850Z,100688.77
2019-05-06T08:05:27.468Z,100693.92
2019-05-06T08:08:33.429Z,100694.22
2019-05-06T08:11:37.700Z,100698.24
2019-05-06T08:14:43.434Z,100714.78
2019-05-06T08:17:47.916Z,100709.03
2019-05-06T08:20:52.203Z,100706.16
2019-05-06T08:23:56.535Z,100708.83
2019-05-06T08:27:02.895Z,100705.16
2019-05-06T08:30:07.208Z,100699.67
2019-05-06T08:33:12.904Z,100705.82
2019-05-06T08:36:23.832Z,100713.97
2019-05-06T08:39:27.934Z,100709.66
2019-05-06T08:42:32.914Z,100707.27
2019-05-06T08:45:37.431Z,100710.16
2019-05-06T08:48:42.826Z,100703.59
2019-05-06T08:51:57.113Z,100699.48
2019-05-06T08:55:02.928Z,100694.13
2019-05-06T08:58:07.985Z,100694.02
2019-05-06T09:01:15.051Z,100695.39
2019-05-06T09:04:19.157Z,100695.10
2019-05-06T09:07:23.869Z,100685.78
2019-05-06T09:10:28.296Z,100684.94
2019-05-06T09:13:32.704Z,100685.81
2019-05-06T09:16:37.175Z,100693.71
2019-05-06T09:19:42.655Z,100691.58
2019-05-06T09:22:47.043Z,100693.96
2019-05-06T09:25:53.069Z,100701.86
2019-05-06T09:29:03.824Z,100690.30
2019-05-06T09:32:13.977Z,100692.20
2019-05-06T09:35:18.286Z,100680.88
2019-05-06T09:38:22.901Z,100677.59
2019-05-06T09:41:27.132Z,100674.37
2019-05-06T09:44:33.000Z,100680.28
2019-05-06T09:47:56.484Z,100675.30
2019-05-06T09:51:02.893Z,100685.25
2019-05-06T09:54:32.445Z,100682.80
2019-05-06T09:57:55.819Z,100678.50
2019-05-06T10:01:02.721Z,100674.80
2019-05-06T10:04:09.771Z,100667.52
2019-05-06T10:07:14.119Z,100677.41
2019-05-06T10:10:18.046Z,100668.36
2019-05-06T10:13:22.089Z,100671.03
2019-05-06T10:16:26.539Z,100661.89
2019-05-06T10:19:32.093Z,100659.38
2019-05-06T10:22:36.293Z,100663.07
2019-05-06T10:25:43.365Z,100663.66
2019-05-06T10:29:22.272Z,100676.11
2019-05-06T10:32:42.629Z,100673.17
2019-05-06T10:35:46.777Z,100668.73
2019-05-06T10:38:58.062Z,100678.97
2019-05-06T10:42:13.989Z,100675.38
2019-05-06T10:45:28.401Z,100669.16
2019-05-06T10:48:32.593Z,100672.18
2019-05-06T10:51:47.991Z,100679.74
2019-05-06T10:54:52.252Z,100672.77
2019-05-06T10:57:56.642Z,100669.45
2019-05-06T11:01:25.814Z,100672.79
2019-05-06T11:04:29.836Z,100673.95
2019-05-06T11:07:35.406Z,100675.07
2019-05-06T11:10:44.138Z,100665.34
2019-05-06T11:13:46.237Z,100666.63
2019-05-06T11:16:50.115Z,100665.95
2019-05-06T11:19:53.967Z,100667.37
2019-05-06T11:22:58.557Z,100660.89
2019-05-06T11:26:03.135Z,100660.36
2019-05-06T11:29:18.985Z,100656.73
2019-05-06T11:32:54.814Z,100658.48
2019-05-06T11:36:01.974Z,100660.33
2019-05-06T11:39:07.090Z,100652.97
2019-05-06T11:42:24.939Z,100651.78
2019-05-06T11:45:17.014Z,100646.95
2019-05-06T11:48:22.286Z,100649.55
2019-05-06T11:51:28.083Z,100640.60
2019-05-06T11:54:33.739Z,100638.42
2019-05-06T11:57:41.677Z,100641.47
2019-05-06T12:00:45.672Z,100638.75
2019-05-06T12:03:49.549Z,100639.55
2019-05-06T12:07:09.987Z,100641.33
2019-05-06T12:09:59.150Z,100643.38
2019-05-06T12:13:03.155Z,100642.98
2019-05-06T12:16:07.529Z,100636.75
2019-05-06T12:19:13.134Z,100642.05
2019-05-06T12:22:17.507Z,100631.78
2019-05-06T12:25:23.435Z,100633.14
2019-05-06T12:28:28.008Z,100644.34
2019-05-06T12:31:32.853Z,100633.05
2019-05-06T12:34:37.357Z,100632.94
2019-05-06T12:37:44.059Z,100635.05
2019-05-06T12:40:48.603Z,100636.28
2019-05-06T12:43:53.125Z,100637.09
2019-05-06T12:47:04.775Z,100648.80
2019-05-06T12:50:08.844Z,100650.25
2019-05-06T12:53:13.355Z,100652.20
2019-05-06T12:56:17.752Z,100657.78
2019-05-06T12:59:22.312Z,100664.32
2019-05-06T13:02:26.607Z,100656.25
2019-05-06T13:05:31.936Z,100663.63
2019-05-06T13:08:54.092Z,100664.84
2019-05-06T13:11:43.172Z,100658.89
2019-05-06T13:14:47.298Z,100657.97
2019-05-06T13:17:53.160Z,100656.30
2019-05-06T13:20:57.993Z,100650.07
2019-05-06T13:24:05.556Z,100639.30
2019-05-06T13:27:12.573Z,100629.36
2019-05-06T13:30:17.698Z,100632.57
2019-05-06T13:33:30.446Z,100620.76
2019-05-06T13:36:35.783Z,100621.58
2019-05-06T13:39:40.359Z,100613.23
2019-05-06T13:43:03.783Z,100617.32
2019-05-06T13:46:15.160Z,100611.20
2019-05-06T13:49:37.634Z,100608.17
2019-05-06T13:52:43.490Z,100610.06
2019-05-06T13:55:47.381Z,100602.33
2019-05-06T13:58:52.675Z,100610.06
2019-05-06T14:02:16.296Z,100604.38
2019-05-06T14:05:21.292Z,100601.23
2019-05-06T14:08:25.547Z,100600.09
2019-05-06T14:11:29.742Z,100598.59
2019-05-06T14:14:33.923Z,100591.94
2019-05-06T14:17:37.938Z,100590.40
2019-05-06T14:20:42.918Z,100593.45
2019-05-06T14:23:47.266Z,100592.26
2019-05-06T14:27:02.521Z,100601.67
2019-05-06T14:30:13.854Z,100602.92
2019-05-06T14:33:19.736Z,100596.98
2019-05-06T14:36:27.426Z,100596.11
2019-05-06T14:39:49.072Z,100589.03
2019-05-06T14:42:38.514Z,100586.34
2019-05-06T14:45:42.419Z,100595.88
2019-05-06T14:48:47.926Z,100609.26
2019-05-06T14:51:53.694Z,100608.47
2019-05-06T14:55:07.854Z,100611.31
2019-05-06T14:58:12.141Z,100608.55
2019-05-06T15:01:16.310Z,100619.13
2019-05-06T15:04:22.813Z,100621.73
2019-05-06T15:07:26.327Z,100611.80
2019-05-06T15:10:32.143Z,100612.58
2019-05-06T15:13:36.686Z,100613.94
2019-05-06T15:16:42.233Z,100614.02
2019-05-06T15:19:46.752Z,100613.41
2019-05-06T15:22:52.984Z,100603.66
2019-05-06T15:25:57.307Z,100612.88
2019-05-06T15:29:03.360Z,100617.24
2019-05-06T15:32:24.169Z,100610.20
2019-05-06T15:35:47.173Z,100611.06
2019-05-06T15:38:52.760Z,100615.17
2019-05-06T15:41:56.934Z,100617.09
2019-05-06T15:45:01.678Z,100619.70
2019-05-06T15:48:05.588Z,100624.24
2019-05-06T15:51:12.085Z,100633.95
2019-05-06T15:54:15.220Z,100625.38
2019-05-06T15:57:19.654Z,100628.41
2019-05-06T16:00:23.750Z,100642.48
2019-05-06T16:03:28.112Z,100639.00
2019-05-06T16:06:33.137Z,100635.70
2019-05-06T16:09:37.235Z,100640.36
2019-05-06T16:12:44.026Z,100638.66
2019-05-06T16:15:48.245Z,100635.95
2019-05-06T16:18:52.094Z,100636.30
2019-05-06T16:21:56.214Z,100629.27
2019-05-06T16:25:07.884Z,100626.38
2019-05-06T16:28:13.006Z,100630.05
2019-05-06T16:31:17.284Z,100620.68
2019-05-06T16:34:22.805Z,100625.41
2019-05-06T16:37:27.057Z,100629.69
2019-05-06T16:40:33.508Z,100626.42
2019-05-06T16:43:37.222Z,100621.26
2019-05-06T16:46:42.701Z,100624.18
2019-05-06T16:49:46.741Z,100623.09
2019-05-06T16:52:52.572Z,100625.53
2019-05-06T16:56:02.377Z,100625.05
2019-05-06T16:59:06.314Z,100622.61
2019-05-06T17:02:22.853Z,100631.75
2019-05-06T17:05:45.001Z,100632.25
2019-05-06T17:08:49.418Z,100627.22
2019-05-06T17:11:53.923Z,100628.17
2019-05-06T17:14:57.847Z,100624.56
2019-05-06T17:18:03.046Z,100625.15
2019-05-06T17:21:07.376Z,100633.06
2019-05-06T17:24:13.066Z,100633.37
2019-05-06T17:27:17.192Z,100627.80
2019-05-06T17:30:42.773Z,100632.97
2019-05-06T17:33:47.517Z,100630.46
2019-05-06T17:36:53.814Z,100629.55
2019-05-06T17:40:07.874Z,100627.30
2019-05-06T17:43:04.416Z,100628.91
2019-05-06T17:46:08.773Z,100635.22
2019-05-06T17:49:16.439Z,100629.55
2019-05-06T17:52:22.421Z,100636.95
2019-05-06T17:55:26.398Z,100641.56
2019-05-06T17:58:30.325Z,100638.75
2019-05-06T18:01:44.070Z,100641.77
2019-05-06T18:04:48.220Z,100638.41
2019-05-06T18:07:52.056Z,100641.12
2019-05-06T18:10:56.464Z,100641.39
2019-05-06T18:14:00.492Z,100645.59
2019-05-06T18:17:04.882Z,100644.63
2019-05-06T18:20:09.939Z,100650.33
2019-05-06T18:23:13.803Z,100648.56
2019-05-06T18:26:18.047Z,100650.44
2019-05-06T18:29:22.443Z,100654.04
2019-05-06T18:32:27.054Z,100650.86
2019-05-06T18:35:31.178Z,100655.61
2019-05-06T18:38:35.184Z,100659.48
2019-05-06T18:41:39.288Z,100657.69
2019-05-06T18:44:43.534Z,100665.52
2019-05-06T18:47:47.448Z,100662.59
2019-05-06T18:50:52.023Z,100669.90
2019-05-06T18:53:56.287Z,100676.62
2019-05-06T18:57:04.616Z,100678.45
2019-05-06T19:00:07.115Z,100677.14
2019-05-06T19:03:12.133Z,100682.51
2019-05-06T19:06:16.102Z,100691.16
2019-05-06T19:09:39.021Z,100692.52
2019-05-06T19:12:43.014Z,100692.20
2019-05-06T19:15:47.441Z,100701.37
2019-05-06T19:18:52.185Z,100704.44
2019-05-06T19:21:56.662Z,100705.53
2019-05-06T19:25:02.632Z,100709.84
2019-05-06T19:28:06.691Z,100712.06
2019-05-06T19:31:12.315Z,100711.79
2019-05-06T19:34:16.701Z,100719.70
2019-05-06T19:37:23.085Z,100723.17
2019-05-06T19:40:26.601Z,100727.84
2019-05-06T19:43:32.874Z,100727.11
2019-05-06T19:46:37.343Z,100725.00
2019-05-06T19:49:42.437Z,100728.75
2019-05-06T19:52:46.440Z,100728.05
2019-05-06T19:55:50.372Z,100726.27
2019-05-06T19:58:54.332Z,100727.39
2019-05-06T20:01:58.664Z,100722.77
2019-05-06T20:05:07.346Z,100723.47
2019-05-06T20:08:24.782Z,100728.83
2019-05-06T20:11:33.208Z,100730.69
2019-05-06T20:14:37.053Z,100729.41
2019-05-06T20:17:42.486Z,100729.70
2019-05-06T20:20:46.785Z,100727.77
2019-05-06T20:23:52.653Z,100725.79
2019-05-06T20:26:57.025Z,100725.36
2019-05-06T20:30:03.251Z,100721.30
2019-05-06T20:33:06.635Z,100721.39
2019-05-06T20:36:12.582Z,100715.55
2019-05-06T20:39:16.921Z,100715.44
2019-05-06T20:42:22.253Z,100719.42
2019-05-06T20:45:26.414Z,100715.91
2019-05-06T20:48:32.517Z,100719.73
2019-05-06T20:51:36.856Z,100713.21
2019-05-06T20:54:42.672Z,100714.80
2019-05-06T20:57:46.742Z,100718.60
2019-05-06T21:00:52.133Z,100717.09
2019-05-06T21:03:56.376Z,100719.72
2019-05-06T21:07:00.236Z,100717.24
2019-05-06T21:10:05.080Z,100724.69
2019-05-06T21:13:08.999Z,100724.05
2019-05-06T21:16:13.214Z,100727.12
2019-05-06T21:19:17.771Z,100721.11
2019-05-06T21:22:22.285Z,100725.39
2019-05-06T21:25:26.291Z,100725.16
2019-05-06T21:28:30.563Z,100724.86
2019-05-06T21:31:35.324Z,100733.95
2019-05-06T21:34:40.276Z,100723.83
2019-05-06T21:37:44.469Z,100727.16
2019-05-06T21:40:48.905Z,100728.63
2019-05-06T21:43:52.832Z,100726.15
2019-05-06T21:46:56.819Z,100725.81
2019-05-06T21:50:00.742Z,100722.36
2019-05-06T21:53:04.705Z,100727.37
2019-05-06T21:56:09.184Z,100727.56
2019-05-06T21:59:13.426Z,100720.55
2019-05-06T22:02:20.128Z,100722.39
2019-05-06T22:05:24.305Z,100725.99
2019-05-06T22:08:28.521Z,100727.89
2019-05-06T22:11:33.150Z,100732.44
2019-05-06T22:14:37.392Z,100724.05
2019-05-06T22:17:42.917Z,100724.16
2019-05-06T22:21:04.949Z,100731.80
2019-05-06T22:24:08.907Z,100725.07
2019-05-06T22:27:13.711Z,100720.66
2019-05-06T22:30:18.746Z,100718.08
2019-05-06T22:33:22.580Z,100719.50
2019-05-06T22:36:26.800Z,100719.16
2019-05-06T22:39:31.684Z,100718.42
2019-05-06T22:42:36.867Z,100719.47
2019-05-06T22:45:42.544Z,100721.86
2019-05-06T22:48:46.507Z,100721.92
2019-05-06T22:51:52.144Z,100717.64
2019-05-06T22:54:55.922Z,100720.00
2019-05-06T22:58:02.410Z,100718.65
2019-05-06T23:01:12.446Z,100722.23
2019-05-06T23:04:17.460Z,100715.13
2019-05-06T23:07:22.531Z,100718.82
2019-05-06T23:10:26.802Z,100722.09
2019-05-06T23:13:30.822Z,100722.70
2019-05-06T23:16:35.180Z,100727.76
2019-05-06T23:19:39.169Z,100727.42
2019-05-06T23:22:43.308Z,100737.35
2019-05-06T23:26:06.302Z,100736.03
2019-05-06T23:29:10.152Z,100733.33
2019-05-06T23:32:14.154Z,100724.87
2019-05-06T23:35:18.303Z,100735.65
2019-05-06T23:38:58.474Z,100730.46
2019-05-06T23:42:38.438Z,100725.23
2019-05-06T23:46:18.636Z,100729.27
2019-05-06T23:49:59.096Z,100726.18
2019-05-06T23:53:38.838Z,100725.48
2019-05-06T23:56:44.762Z,100715.79
2019-05-06T23:59:48.868Z,100710.54
